• Join FlightAware (Why Join?)
  • Login
  • US Flag 
04:41AM EDT


 

Airport Tracker/Info


-or-


 

Live Flight TrackerFlight Track Log ✈ UPS110 ✈ 18 de Aug de 2013 ✈ PANC - RJAA / NRT

Flight Track Log - Related Links

Times and Time Zones

All times are in EDT time to prevent confusion due to time zone crossing. See the UPS110 flight status page for this flight to view local times or setup timezone preferences in your user account.

Time Position Orientation Groundspeed Altitude Reporting Facility
EDT Latitude Longitude Course Direction KTS MPH feet Rate Location/Type
11:06AM 61.1930 -150.0040 165° South  Level FlightAware
11:10AM 61.2035 -150.5693 276° West  Level FlightAware Approximate
11:18AM 61.1800 -150.0040 342° North 135 155  Level FlightAware
11:18AM 61.2010 -150.0160 345° North 170 196 1,600 3,600 Climbing FlightAware
11:18AM 61.2060 -150.0220 330° Northwest 167 192 2,100 3,480 Climbing FlightAware
11:19AM 61.2170 -150.0370 327° Northwest 168 193 3,000 3,600 Climbing FlightAware
11:19AM 61.2190 -150.0420 310° West 169 194 3,300 3,480 Climbing FlightAware
11:19AM 61.2220 -150.0530 300° West 170 196 3,700 2,700 Climbing FlightAware
11:19AM 61.2260 -150.0740 292° West 177 204 4,300 2,040 Climbing FlightAware
11:19AM 61.2260 -150.1070 270° West 201 231 4,800 1,680 Climbing FlightAware
11:20AM 61.2280 -150.1560 275° West 231 266 5,500 1,920 Climbing FlightAware
11:20AM 61.2300 -150.2070 275° West 251 289 6,300 1,800 Climbing FlightAware
11:20AM 61.2320 -150.2560 275° West 274 315 6,800 2,100 Climbing FlightAware
11:21AM 61.2340 -150.3120 274° West 282 325 7,700 2,520 Climbing FlightAware
11:21AM 61.2360 -150.3660 274° West 289 333 8,500 2,580 Climbing FlightAware
11:22AM 61.2380 -150.4320 274° West 294 338 9,600 2,640 Climbing FlightAware
11:22AM 61.2410 -150.5310 274° West 300 345 11,100 2,100 Climbing FlightAware
11:23AM 61.2450 -150.6410 274° West 342 394 12,100 1,620 Climbing FlightAware
11:23AM 61.2490 -150.7520 274° West 378 435 13,000 2,220 Climbing FlightAware
11:24AM 61.2530 -150.8770 274° West 394 453 14,600 2,880 Climbing FlightAware
11:24AM 61.2570 -151.0150 274° West 406 467 16,400 2,820 Climbing FlightAware
11:25AM 61.2610 -151.1510 274° West 415 478 18,100 2,700 Climbing FlightAware
11:26AM 61.2650 -151.3020 273° West 426 490 19,700 2,640 Climbing FlightAware
11:26AM 61.2690 -151.4340 274° West 435 501 21,100 2,520 Climbing FlightAware
11:27AM 61.2730 -151.5970 273° West 444 511 22,700 2,340 Climbing FlightAware
11:27AM 61.2770 -151.7510 273° West 453 521 24,000 2,160 Climbing FlightAware
11:28AM 61.2810 -151.8930 273° West 461 531 25,200 1,980 Climbing FlightAware
11:28AM 61.2840 -152.0410 272° West 470 541 26,200 1,800 Climbing FlightAware
11:29AM 61.2850 -152.2040 271° West 479 551 27,400 1,980 Climbing FlightAware
11:30AM 61.2850 -152.3780 270° West 482 555 28,700 2,280 Climbing FlightAware
11:30AM 61.2850 -152.5280 270° West 477 549 30,000 2,460 Climbing FlightAware
11:31AM 61.2860 -152.6990 271° West 469 540 31,600 2,280 Climbing FlightAware
11:31AM 61.2860 -152.8520 270° West 465 535 32,800 1,920 Climbing FlightAware
11:32AM 61.2860 -153.0110 270° West 461 531 33,900 1,800 Climbing FlightAware
11:33AM 61.2860 -153.1950 270° West 454 522 35,200 1,200 Climbing FlightAware
11:33AM 61.2850 -153.3560 269° West 467 537 35,500 660 Climbing FlightAware
11:34AM 61.2850 -153.4960 270° West 470 541 36,000 420 Climbing FlightAware
11:34AM 61.2840 -153.6610 269° West 468 539 36,000  Level FlightAware
11:35AM 61.2830 -153.8050 269° West 464 534 36,000  Level FlightAware
11:36AM 61.2820 -153.9690 269° West 464 534 36,000  Level FlightAware
11:36AM 61.2800 -154.1330 269° West 464 534 36,000  Level FlightAware
11:37AM 61.2790 -154.2730 269° West 463 533 36,000  Level FlightAware
11:37AM 61.2770 -154.4360 269° West 462 532 36,000  Level FlightAware
11:38AM 61.2750 -154.5960 269° West 461 531 36,000  Level FlightAware
11:39AM 61.2730 -154.7530 269° West 459 528 36,000  Level FlightAware
11:39AM 61.2710 -154.8790 268° West 458 527 36,000  Level FlightAware
11:40AM 61.2680 -155.1070 269° West 456 525 36,000  Level FlightAware
11:41AM 61.2640 -155.2720 267° West 456 525 36,000  Level FlightAware
11:41AM 61.2600 -155.4060 267° West 456 525 36,000  Level FlightAware
11:42AM 61.2570 -155.5440 267° West 456 525 36,000  Level FlightAware
11:43AM 61.2530 -155.6820 267° West 456 525 36,000  Level FlightAware
11:43AM 61.2500 -155.8160 267° West 456 525 36,000  Level FlightAware
11:44AM 61.2460 -155.9500 267° West 456 525 36,000  Level FlightAware
11:44AM 61.2430 -156.0880 267° West 456 525 36,000  Level FlightAware
11:45AM 61.2400 -156.2220 267° West 456 525 36,000  Level FlightAware
11:46AM 61.2360 -156.3560 267° West 456 525 36,000  Level FlightAware
11:46AM 61.2330 -156.4900 267° West 456 525 36,000  Level FlightAware
11:47AM 61.2290 -156.6240 267° West 456 525 36,000  Level FlightAware
11:47AM 61.2260 -156.7610 267° West 456 525 36,000  Level FlightAware
11:48AM 61.2220 -156.8950 267° West 456 525 36,000  Level FlightAware
11:49AM 61.2190 -157.0290 267° West 456 525 36,000  Level FlightAware
11:49AM 61.2160 -157.1670 267° West 456 525 36,000  Level FlightAware
11:50AM 61.2120 -157.3040 267° West 456 525 36,000  Level FlightAware
11:50AM 61.2500 -157.8167 267° West 450 518 36,000  Level Anchorage Center
11:51AM 61.2333 -157.9667 257° West 460 529 36,000  Level Anchorage Center
11:52AM 61.2333 -158.2333 270° West 450 518 36,000  Level Anchorage Center
11:53AM 61.2333 -158.5000 270° West 450 518 36,000  Level Anchorage Center
11:54AM 61.2333 -158.7500 270° West 450 518 36,000  Level Anchorage Center
11:55AM 61.2333 -159.0167 270° West 460 529 36,000  Level Anchorage Center
11:56AM 61.2333 -159.2833 270° West 460 529 36,000  Level Anchorage Center
11:57AM 61.2167 -159.5500 263° West 460 529 36,000  Level Anchorage Center
11:58AM 61.2167 -159.8167 270° West 450 518 36,000  Level Anchorage Center
11:59AM 61.2167 -160.0833 270° West 450 518 36,000  Level Anchorage Center
12:00PM 61.2000 -160.3500 263° West 460 529 36,000  Level Anchorage Center
12:01PM 61.2000 -160.6167 270° West 450 518 36,000  Level Anchorage Center
12:02PM 61.1833 -160.8833 263° West 450 518 36,000  Level Anchorage Center
12:03PM 61.1833 -161.1500 270° West 460 529 36,000  Level Anchorage Center
12:04PM 61.1667 -161.4167 263° West 450 518 36,000  Level Anchorage Center
12:05PM 61.1667 -161.6833 270° West 450 518 36,000  Level Anchorage Center
12:06PM 61.1500 -161.9333 262° West 460 529 36,000  Level Anchorage Center
12:07PM 61.1500 -162.2000 270° West 460 529 36,000  Level Anchorage Center
12:08PM 61.1333 -162.4667 263° West 450 518 36,000  Level Anchorage Center
12:09PM 61.1167 -162.7333 263° West 450 518 36,000  Level Anchorage Center
12:10PM 61.1000 -162.9833 262° West 450 518 36,000  Level Anchorage Center
12:11PM 61.0833 -163.2500 263° West 460 529 36,000  Level Anchorage Center
12:12PM 61.0333 -163.5167 249° West 470 541 36,000  Level Anchorage Center
12:13PM 61.0000 -163.7667 255° West 470 541 36,000  Level Anchorage Center
12:14PM 60.9667 -164.0333 256° West 470 541 36,000  Level Anchorage Center
12:15PM 60.9167 -164.3000 249° West 470 541 36,000  Level Anchorage Center
12:16PM 60.8833 -164.5500 255° West 470 541 36,000  Level Anchorage Center
12:17PM 60.8500 -164.8000 255° West 460 529 36,000  Level Anchorage Center
12:18PM 60.8000 -165.0500 248° West 460 529 36,000  Level Anchorage Center
12:19PM 60.7667 -165.3167 256° West 460 529 36,000  Level Anchorage Center
12:20PM 60.7167 -165.5667 248° West 460 529 36,000  Level Anchorage Center
12:21PM 60.6833 -165.8167 255° West 460 529 36,000  Level Anchorage Center
12:22PM 60.6500 -166.0667 255° West 460 529 36,000  Level Anchorage Center
12:23PM 60.6167 -166.2667 251° West 460 529 36,000  Level Anchorage Center
12:24PM 60.5667 -166.5167 248° West 460 529 36,000  Level Anchorage Center
12:25PM 60.5000 -166.9000 251° West 460 529 36,000  Level Anchorage Center
12:26PM 60.4667 -167.1000 251° West 460 529 36,000  Level Anchorage Center
12:27PM 60.4167 -167.3500 248° West 460 529 36,000  Level Anchorage Center
12:28PM 60.3833 -167.6000 255° West 460 529 36,000  Level Anchorage Center
12:29PM 60.3333 -167.8333 247° West 450 518 36,000  Level Anchorage Center
12:30PM 60.2833 -168.0833 248° West 450 518 36,000  Level Anchorage Center
12:31PM 60.2500 -168.3167 254° West 450 518 36,000  Level Anchorage Center
12:32PM 60.2000 -168.5500 247° West 450 518 36,000  Level Anchorage Center
12:33PM 60.1667 -168.7833 254° West 450 518 36,000  Level Anchorage Center
12:34PM 60.1167 -169.0333 248° West 450 518 36,000  Level Anchorage Center
12:35PM 60.0667 -169.2500 245° Southwest 450 518 36,000  Level Anchorage Center
12:36PM 60.0167 -169.5000 248° West 450 518 36,000  Level Anchorage Center
12:37PM 59.9833 -169.7333 254° West 450 518 36,000  Level Anchorage Center
12:38PM 59.9333 -169.9667 247° West 450 518 36,000  Level Anchorage Center
12:39PM 59.8833 -170.2000 247° West 440 506 36,000  Level Anchorage Center
12:40PM 59.8333 -170.4333 247° West 450 518 36,000  Level Anchorage Center
12:41PM 59.8000 -170.6667 254° West 450 518 36,000  Level Anchorage Center
12:42PM 59.7500 -170.8833 245° Southwest 440 506 36,000  Level Anchorage Center
12:43PM 59.7000 -171.1333 248° West 460 529 36,000  Level Anchorage Center
12:44PM 59.6500 -171.3500 246° West 440 506 36,000  Level Anchorage Center
12:45PM 59.6000 -171.5667 246° West 440 506 36,000  Level Anchorage Center
12:46PM 59.5500 -171.8000 247° West 440 506 36,000  Level Anchorage Center
12:47PM 59.5000 -172.0333 247° West 440 506 36,000  Level Anchorage Center
12:48PM 59.4500 -172.2500 246° West 450 518 36,000  Level Anchorage Center
12:49PM 59.4167 -172.4667 253° West 420 483 36,000  Level Anchorage Center
12:50PM 59.3667 -172.7000 247° West 440 506 36,000  Level Anchorage Center
12:51PM 59.3167 -172.9167 246° West 440 506 36,000  Level Anchorage Center
12:52PM 59.2667 -173.1500 247° West 430 495 36,000  Level Anchorage Center
12:53PM 59.2333 -173.3667 253° West 440 506 36,000 240 Level Anchorage Center
12:54PM 59.1833 -173.5833 246° West 440 506 36,500 960 Climbing Anchorage Center
12:55PM 59.1333 -173.8167 247° West 440 506 38,000 720 Climbing Anchorage Center
12:56PM 59.0833 -174.0333 246° West 440 506 38,000  Level Anchorage Center
12:57PM 59.0333 -174.2500 246° West 440 506 38,000  Level Anchorage Center
12:58PM 58.9833 -174.4667 246° West 440 506 38,000  Level Anchorage Center
12:59PM 58.9333 -174.6833 246° West 430 495 38,000  Level Anchorage Center
01:00PM 58.9000 -174.9000 253° West 430 495 38,000  Level Anchorage Center
01:01PM 58.8500 -175.1167 246° West 430 495 38,000  Level Anchorage Center
01:02PM 58.8000 -175.3167 244° Southwest 430 495 38,000  Level Anchorage Center
01:03PM 58.7500 -175.5333 246° West 440 506 38,000  Level Anchorage Center
01:04PM 58.7000 -175.7500 246° West 430 495 38,000  Level Anchorage Center
01:06PM 58.6500 -175.9667 246° West 430 495 38,000  Level Anchorage Center
01:07PM 58.6000 -176.1667 244° Southwest 440 506 38,000  Level Anchorage Center
01:08PM 58.5500 -176.3833 246° West 430 495 38,000  Level Anchorage Center
01:09PM 58.5000 -176.6000 246° West 440 506 38,000  Level Anchorage Center
01:10PM 58.4333 -176.8000 238° Southwest 440 506 38,000  Level Anchorage Center
01:13PM 58.3851 -177.0177 247° West  Level FlightAware Approximate
01:18PM 58.0000 -178.5833 244° Southwest 443 510 38,000  Level Anchorage Center
01:20PM 58.0153 -178.5055 245° Southwest  Level FlightAware Approximate
01:21PM 57.9609 -178.7154 244° Southwest  Level FlightAware Approximate
01:22PM 57.9062 -178.9246 244° Southwest  Level FlightAware Approximate
01:23PM 57.8511 -179.1331 244° Southwest  Level FlightAware Approximate
01:24PM 57.7957 -179.3411 244° Southwest  Level FlightAware Approximate
01:25PM 57.5900 179.9145 242° Southwest 443 510 38,000  Level FlightAware Transoceanic
01:26PM 57.5300 179.7027 242° Southwest 443 510 38,000  Level FlightAware Transoceanic
01:27PM 57.4697 179.4916 242° Southwest 443 510 38,000  Level FlightAware Transoceanic
01:28PM 57.4090 179.2812 242° Southwest 443 510 38,000  Level FlightAware Transoceanic
01:28PM 57.4667 179.4667 242° Southwest 448 516 38,000  Level Anchorage Center
01:29PM 57.3479 179.0715 242° Southwest 443 510 38,000  Level FlightAware Transoceanic
01:30PM 57.2865 178.8625 241° Southwest 443 510 38,000  Level FlightAware Transoceanic
01:31PM 57.2247 178.6542 241° Southwest 443 510 38,000  Level FlightAware Transoceanic
01:32PM 57.1626 178.4466 241° Southwest 443 510 38,000  Level FlightAware Transoceanic
01:33PM 57.1002 178.2397 241° Southwest 443 510 38,000  Level FlightAware Transoceanic
01:34PM 57.0873 178.1856 241° Southwest 448 516 38,000  Level FlightAware Transoceanic
01:35PM 57.0228 177.9746 241° Southwest 448 516 38,000  Level FlightAware Transoceanic
01:36PM 56.9580 177.7644 240° Southwest 448 516 38,000  Level FlightAware Transoceanic
01:37PM 56.8928 177.5549 240° Southwest 448 516 38,000  Level FlightAware Transoceanic
01:37PM 56.8667 177.4500 240° Southwest 476 548 38,000  Level Anchorage Center
01:38PM 56.8273 177.3462 240° Southwest 448 516 38,000  Level FlightAware Transoceanic
01:38PM 56.8333 177.3500 240° Southwest 492 566 38,000  Level Anchorage Center
01:39PM 56.7614 177.1382 240° Southwest 448 516 38,000  Level FlightAware Transoceanic
01:40PM 56.6952 176.9309 240° Southwest 448 516 38,000  Level FlightAware Transoceanic
01:41PM 56.6286 176.7243 240° Southwest 448 516 38,000  Level FlightAware Transoceanic
01:42PM 56.5617 176.5185 239° Southwest 448 516 38,000  Level FlightAware Transoceanic
01:43PM 56.4944 176.3134 239° Southwest 448 516 38,000  Level FlightAware Transoceanic
01:44PM 56.4159 176.0647 239° Southwest 492 566 38,000  Level FlightAware Transoceanic
01:45PM 56.3451 175.8532 239° Southwest 492 566 38,000  Level FlightAware Transoceanic
01:46PM 56.2738 175.6425 239° Southwest 492 566 38,000  Level FlightAware Transoceanic
01:46PM 56.2000 175.5000 238° Southwest 480 552 38,000  Level Anchorage Center
01:47PM 56.2023 175.4327 238° Southwest 492 566 38,000  Level FlightAware Transoceanic
01:47PM 56.1500 175.2833 248° West 510 587 38,000  Level Anchorage Center
01:48PM 56.1304 175.2236 238° Southwest 492 566 38,000  Level FlightAware Transoceanic
01:48PM 56.0667 175.0667 235° Southwest 500 575 38,000  Level Anchorage Center
01:49PM 56.0581 175.0152 238° Southwest 492 566 38,000  Level FlightAware Transoceanic
01:49PM 56.0000 174.8833 237° Southwest 500 575 38,000  Level Anchorage Center
01:50PM 55.9855 174.8077 238° Southwest 492 566 38,000  Level FlightAware Transoceanic
01:50PM 55.9167 174.6500 238° Southwest 500 575 38,000  Level Anchorage Center
01:51PM 55.9125 174.6009 238° Southwest 492 566 38,000  Level FlightAware Transoceanic
01:51PM 55.8500 174.4333 241° Southwest 500 575 38,000  Level Anchorage Center
01:52PM 55.8392 174.3950 238° Southwest 492 566 38,000  Level FlightAware Transoceanic
01:52PM 55.7833 174.2500 237° Southwest 490 564 38,000  Level Anchorage Center
01:53PM 55.7000 174.0167 238° Southwest 490 564 38,000  Level Anchorage Center
01:54PM 55.6333 173.8500 235° Southwest 500 575 38,000  Level Anchorage Center
01:55PM 55.5500 173.6167 238° Southwest 500 575 38,000  Level Anchorage Center
01:56PM 55.4833 173.4500 235° Southwest 500 575 38,000  Level Anchorage Center
01:57PM 55.4000 173.2167 238° Southwest 500 575 38,000  Level Anchorage Center
01:58PM 55.3333 173.0500 235° Southwest 500 575 38,000  Level Anchorage Center
01:59PM 55.2500 172.8167 238° Southwest 500 575 38,000  Level Anchorage Center
02:00PM 55.1667 172.6000 236° Southwest 490 564 38,000  Level Anchorage Center
02:01PM 55.1000 172.4333 235° Southwest 510 587 38,000  Level Anchorage Center
02:02PM 55.0167 172.2000 238° Southwest 510 587 38,000  Level Anchorage Center
02:03PM 54.9500 172.0333 235° Southwest 490 564 38,000  Level Anchorage Center
02:04PM 54.8500 171.8167 231° Southwest 500 575 38,000  Level Anchorage Center
02:05PM 54.7833 171.6500 235° Southwest 500 575 38,000  Level Anchorage Center
02:06PM 54.7000 171.4333 236° Southwest 500 575 38,000  Level Anchorage Center
02:07PM 54.6167 171.2333 234° Southwest 490 564 38,000  Level Anchorage Center
02:08PM 54.5333 171.0500 232° Southwest 510 587 38,000  Level Anchorage Center
02:09PM 54.4500 170.8333 237° Southwest 510 587 38,000  Level Anchorage Center
02:10PM 54.3833 170.6833 233° Southwest 500 575 38,000  Level Anchorage Center
02:11PM 54.2833 170.4667 232° Southwest 510 587 38,000  Level Anchorage Center
02:12PM 54.2167 170.3000 236° Southwest 490 564 38,000  Level Anchorage Center
02:13PM 54.1333 170.1000 235° Southwest 500 575 38,000  Level Anchorage Center
02:14PM 54.0333 169.9000 230° Southwest 500 575 38,000  Level Anchorage Center
02:15PM 53.9667 169.7333 236° Southwest 510 587 38,000  Level Anchorage Center
02:16PM 53.8833 169.5333 235° Southwest 480 552 38,000  Level Anchorage Center
02:17PM 53.8167 169.3667 236° Southwest 480 552 38,000  Level Anchorage Center
02:18PM 53.7167 169.1500 232° Southwest 520 598 38,000  Level Anchorage Center
02:19PM 53.6500 168.9833 236° Southwest 500 575 38,000  Level Anchorage Center
02:20PM 53.5833 168.7667 243° Southwest 510 587 38,000  Level Anchorage Center
02:21PM 53.5167 168.5833 239° Southwest 510 587 38,000  Level Anchorage Center
02:23PM 53.4167 168.2333 240° Southwest 487 560 38,000  Level Anchorage Center
02:25PM 53.2500 167.8000 239° Southwest 488 562 38,000  Level Anchorage Center
02:30PM 52.9405 166.9013 239° Southwest 487 560 38,000  Level FlightAware Transoceanic
02:31PM 52.8712 166.7134 239° Southwest 487 560 38,000  Level FlightAware Transoceanic
02:32PM 52.8339 166.6473 239° Southwest 488 562 38,000  Level FlightAware Transoceanic
02:33PM 52.7635 166.4573 238° Southwest 488 562 38,000  Level FlightAware Transoceanic
02:34PM 52.6928 166.2680 238° Southwest 488 562 38,000  Level FlightAware Transoceanic
02:35PM 52.6217 166.0793 238° Southwest 488 562 38,000  Level FlightAware Transoceanic
02:36PM 52.5504 165.8911 238° Southwest 488 562 38,000  Level FlightAware Transoceanic
02:36PM 52.5833 165.9500 238° Southwest 481 554 38,000  Level Anchorage Center
02:37PM 52.4788 165.7036 238° Southwest 488 562 38,000  Level FlightAware Transoceanic
02:38PM 52.4069 165.5167 238° Southwest 488 562 38,000  Level FlightAware Transoceanic
02:39PM 52.3347 165.3305 238° Southwest 488 562 38,000  Level FlightAware Transoceanic
02:40PM 52.2622 165.1448 237° Southwest 488 562 38,000  Level FlightAware Transoceanic
02:41PM 52.1894 164.9597 237° Southwest 488 562 38,000  Level FlightAware Transoceanic
02:42PM 52.0968 164.7043 237° Southwest 481 554 38,000  Level FlightAware Transoceanic
02:43PM 52.0262 164.5286 237° Southwest 481 554 38,000  Level FlightAware Transoceanic
02:44PM 51.9554 164.3534 237° Southwest 481 554 38,000  Level FlightAware Transoceanic
02:44PM 51.8833 164.1833 237° Southwest 491 565 38,000  Level Anchorage Center
02:45PM 51.8843 164.1788 237° Southwest 481 554 38,000  Level FlightAware Transoceanic
02:46PM 51.8130 164.0048 236° Southwest 481 554 38,000  Level FlightAware Transoceanic
02:47PM 51.7414 163.8313 236° Southwest 481 554 38,000  Level FlightAware Transoceanic
02:48PM 51.6695 163.6583 236° Southwest 481 554 38,000  Level FlightAware Transoceanic
02:48PM 51.6500 163.6500 236° Southwest 490 564 38,000  Level Anchorage Center
02:49PM 51.5974 163.4859 236° Southwest 481 554 38,000  Level FlightAware Transoceanic
02:50PM 51.5251 163.3140 236° Southwest 481 554 38,000  Level FlightAware Transoceanic
02:51PM 51.4361 163.1096 236° Southwest 491 565 38,000  Level FlightAware Transoceanic
02:52PM 51.3606 162.9327 236° Southwest 491 565 38,000  Level FlightAware Transoceanic
02:53PM 51.2849 162.7564 235° Southwest 491 565 38,000  Level FlightAware Transoceanic
02:54PM 51.2006 162.5855 235° Southwest 490 564 38,000  Level FlightAware Transoceanic
02:54PM 51.1333 162.4333 235° Southwest 494 568 38,000  Level Anchorage Center
02:55PM 51.1248 162.4101 235° Southwest 490 564 38,000  Level FlightAware Transoceanic
02:56PM 51.0487 162.2353 235° Southwest 490 564 38,000  Level FlightAware Transoceanic
02:57PM 50.9724 162.0610 235° Southwest 490 564 38,000  Level FlightAware Transoceanic
02:58PM 50.8957 161.8874 235° Southwest 490 564 38,000  Level FlightAware Transoceanic
02:59PM 50.8189 161.7143 235° Southwest 490 564 38,000  Level FlightAware Transoceanic
03:00PM 50.6948 161.4397 235° Southwest 494 568 38,000  Level FlightAware Transoceanic
03:01PM 50.6209 161.2758 234° Southwest 494 568 38,000  Level FlightAware Transoceanic
03:02PM 50.5468 161.1126 234° Southwest 494 568 38,000  Level FlightAware Transoceanic
03:03PM 50.4725 160.9498 234° Southwest 494 568 38,000  Level FlightAware Transoceanic
03:04PM 50.3979 160.7875 234° Southwest 494 568 38,000  Level FlightAware Transoceanic
03:04PM 50.3833 160.7500 234° Southwest 474 545 38,000  Level Anchorage Center
03:05PM 50.3231 160.6258 234° Southwest 494 568 38,000  Level FlightAware Transoceanic
03:06PM 50.2480 160.4646 234° Southwest 494 568 38,000  Level FlightAware Transoceanic
03:06PM 50.2000 160.3833 234° Southwest 475 547 38,000  Level Anchorage Center
03:07PM 50.1728 160.3038 234° Southwest 494 568 38,000  Level FlightAware Transoceanic
03:08PM 50.0973 160.1436 234° Southwest 494 568 38,000  Level FlightAware Transoceanic
03:09PM 50.0216 159.9839 234° Southwest 494 568 38,000  Level FlightAware Transoceanic
03:10PM 49.9408 159.8123 233° Southwest 474 545 38,000  Level FlightAware Transoceanic
03:11PM 49.8663 159.6578 233° Southwest 474 545 38,000  Level FlightAware Transoceanic
03:12PM 49.7167 159.3500 233° Southwest 475 547 38,000  Level FlightAware Transoceanic
03:13PM 49.6428 159.1993 233° Southwest 475 547 38,000  Level FlightAware Transoceanic
03:14PM 49.5688 159.0490 233° Southwest 475 547 38,000  Level FlightAware Transoceanic
03:15PM 49.4946 158.8992 233° Southwest 475 547 38,000  Level FlightAware Transoceanic
03:16PM 49.4202 158.7499 232° Southwest 475 547 38,000  Level FlightAware Transoceanic
03:17PM 49.3456 158.6010 232° Southwest 475 547 38,000  Level FlightAware Transoceanic
03:18PM 49.2709 158.4526 232° Southwest 475 547 38,000  Level FlightAware Transoceanic
03:19PM 49.1959 158.3046 232° Southwest 475 547 38,000  Level FlightAware Transoceanic
03:20PM 49.1207 158.1571 232° Southwest 475 547 38,000  Level FlightAware Transoceanic
03:21PM 49.0454 158.0100 232° Southwest 475 547 38,000  Level FlightAware Transoceanic
03:22PM 48.9698 157.8633 232° Southwest 475 547 38,000  Level FlightAware Transoceanic
03:23PM 48.8941 157.7171 232° Southwest 475 547 38,000  Level FlightAware Transoceanic
03:24PM 48.8182 157.5714 232° Southwest 475 547 38,000  Level FlightAware Transoceanic
03:25PM 48.7421 157.4261 231° Southwest 475 547 38,000  Level FlightAware Transoceanic
03:26PM 48.6659 157.2812 231° Southwest 475 547 38,000  Level FlightAware Transoceanic
03:27PM 48.5894 157.1367 231° Southwest 475 547 38,000  Level FlightAware Transoceanic
03:28PM 48.5128 156.9927 231° Southwest 475 547 38,000  Level FlightAware Transoceanic
03:29PM 48.4360 156.8492 231° Southwest 475 547 38,000  Level FlightAware Transoceanic
03:30PM 48.3590 156.7060 231° Southwest 475 547 38,000  Level FlightAware Transoceanic
03:31PM 48.2818 156.5633 231° Southwest 475 547 38,000  Level FlightAware Transoceanic
03:32PM 48.2045 156.4211 231° Southwest 475 547 38,000  Level FlightAware Transoceanic
03:33PM 48.1270 156.2792 231° Southwest 475 547 38,000  Level FlightAware Transoceanic
03:34PM 48.0493 156.1378 231° Southwest 475 547 38,000  Level FlightAware Transoceanic
03:35PM 47.9714 155.9968 230° Southwest 475 547 38,000  Level FlightAware Transoceanic
03:36PM 47.8934 155.8563 230° Southwest 475 547 38,000  Level FlightAware Transoceanic
03:37PM 47.8152 155.7162 230° Southwest 475 547 38,000  Level FlightAware Transoceanic
03:38PM 47.7368 155.5764 230° Southwest 475 547 38,000  Level FlightAware Transoceanic
03:39PM 47.6583 155.4371 230° Southwest 475 547 38,000  Level FlightAware Transoceanic
03:40PM 47.5796 155.2983 230° Southwest 475 547 38,000  Level FlightAware Transoceanic
03:41PM 47.5007 155.1598 230° Southwest 475 547 38,000  Level FlightAware Transoceanic
03:42PM 47.4216 155.0218 230° Southwest 475 547 38,000  Level FlightAware Transoceanic
03:43PM 47.3424 154.8841 230° Southwest 475 547 38,000  Level FlightAware Transoceanic
03:44PM 47.2631 154.7469 229° Southwest 475 547 38,000  Level FlightAware Transoceanic
03:45PM 47.1835 154.6101 229° Southwest 475 547 38,000  Level FlightAware Transoceanic
03:46PM 47.1038 154.4737 229° Southwest 475 547 38,000  Level FlightAware Transoceanic
03:47PM 47.0240 154.3377 229° Southwest 475 547 38,000  Level FlightAware Transoceanic
03:48PM 46.9439 154.2022 229° Southwest 475 547 38,000  Level FlightAware Transoceanic
03:49PM 46.8638 154.0670 229° Southwest 475 547 38,000  Level FlightAware Transoceanic
03:50PM 46.7834 153.9322 229° Southwest 475 547 38,000  Level FlightAware Transoceanic
03:51PM 46.7029 153.7979 229° Southwest 475 547 38,000  Level FlightAware Transoceanic
03:52PM 46.6223 153.6639 229° Southwest 475 547 38,000  Level FlightAware Transoceanic
03:53PM 46.5415 153.5303 229° Southwest 475 547 38,000  Level FlightAware Transoceanic
03:54PM 46.4605 153.3971 228° Southwest 475 547 38,000  Level FlightAware Transoceanic
03:55PM 46.3794 153.2644 228° Southwest 475 547 38,000  Level FlightAware Transoceanic
03:56PM 46.2981 153.1320 228° Southwest 475 547 38,000  Level FlightAware Transoceanic
03:57PM 46.2152 152.9977 228° Southwest  Level FlightAware Approximate
03:58PM 46.2138 152.9954 228° Southwest  Level FlightAware Approximate
03:59PM 46.1302 152.8623 228° Southwest  Level FlightAware Approximate
04:00PM 46.0465 152.7296 228° Southwest  Level FlightAware Approximate
04:01PM 45.9626 152.5973 228° Southwest  Level FlightAware Approximate
04:02PM 45.8785 152.4654 228° Southwest  Level FlightAware Approximate
04:03PM 45.7943 152.3338 227° Southwest  Level FlightAware Approximate
04:04PM 45.7100 152.2027 227° Southwest  Level FlightAware Approximate
04:05PM 45.6255 152.0720 227° Southwest  Level FlightAware Approximate
04:06PM 45.5408 151.9417 227° Southwest  Level FlightAware Approximate
04:07PM 45.4560 151.8117 227° Southwest  Level FlightAware Approximate
04:08PM 45.3711 151.6822 227° Southwest  Level FlightAware Approximate
04:09PM 45.2860 151.5530 227° Southwest  Level FlightAware Approximate
04:10PM 45.2008 151.4243 227° Southwest  Level FlightAware Approximate
04:11PM 45.1154 151.2959 227° Southwest  Level FlightAware Approximate
04:12PM 45.0299 151.1679 227° Southwest  Level FlightAware Approximate
04:13PM 44.9442 151.0403 227° Southwest  Level FlightAware Approximate
04:14PM 44.8584 150.9130 226° Southwest  Level FlightAware Approximate
04:15PM 44.7725 150.7861 226° Southwest  Level FlightAware Approximate
04:16PM 44.6864 150.6597 226° Southwest  Level FlightAware Approximate
04:17PM 44.6002 150.5336 226° Southwest  Level FlightAware Approximate
04:18PM 44.5134 150.4084 226° Southwest  Level FlightAware Approximate
04:19PM 44.4264 150.2837 226° Southwest  Level FlightAware Approximate
04:20PM 44.3393 150.1593 226° Southwest  Level FlightAware Approximate
04:21PM 44.2521 150.0353 226° Southwest  Level FlightAware Approximate
04:22PM 44.1648 149.9116 225° Southwest  Level FlightAware Approximate
04:23PM 44.0773 149.7884 225° Southwest  Level FlightAware Approximate
04:24PM 43.9906 149.6643 226° Southwest  Level FlightAware Approximate
04:25PM 43.9041 149.5400 226° Southwest  Level FlightAware Approximate
04:26PM 43.8175 149.4161 226° Southwest  Level FlightAware Approximate
04:27PM 43.7307 149.2925 226° Southwest  Level FlightAware Approximate
04:28PM 43.6438 149.1694 226° Southwest  Level FlightAware Approximate
04:29PM 43.5568 149.0465 226° Southwest  Level FlightAware Approximate
04:30PM 43.4694 148.9244 225° Southwest  Level FlightAware Approximate
04:31PM 43.3813 148.8033 225° Southwest  Level FlightAware Approximate
04:31PM 43.4310 148.8720 225° Southwest 437 503 38,000  Level FlightAware
04:32PM 43.2931 148.6826 225° Southwest  Level FlightAware Approximate
04:32PM 43.3800 148.8010 225° Southwest 438 504 38,000  Level FlightAware
04:32PM 43.3330 148.7380 224° Southwest 438 504 38,000  Level FlightAware
04:33PM 43.2800 148.6650 225° Southwest 438 504 38,000  Level FlightAware
04:33PM 43.2300 148.5970 225° Southwest 433 498 38,000  Level FlightAware
04:34PM 43.1660 148.5100 225° Southwest 434 499 38,000  Level FlightAware
04:35PM 43.1250 148.4550 224° Southwest 433 498 38,000  Level FlightAware
04:35PM 43.0640 148.3710 225° Southwest 434 499 38,000  Level FlightAware
04:36PM 43.0240 148.3170 225° Southwest 434 499 38,000  Level FlightAware
04:36PM 42.9730 148.2490 224° Southwest 434 499 38,000  Level FlightAware
04:37PM 42.9200 148.1770 225° Southwest 434 499 38,000  Level FlightAware
04:38PM 42.8620 148.1000 224° Southwest 434 499 38,000  Level FlightAware
04:38PM 42.8110 148.0310 225° Southwest 433 498 38,000  Level FlightAware
04:39PM 42.7680 147.9740 224° Southwest 432 497 38,000  Level FlightAware
04:39PM 42.7110 147.8980 224° Southwest 432 497 38,000  Level FlightAware
04:40PM 42.6690 147.8420 224° Southwest 432 497 38,000  Level FlightAware
04:40PM 42.6090 147.7630 224° Southwest 433 498 38,000  Level FlightAware
04:41PM 42.5660 147.7050 225° Southwest 433 498 38,000  Level FlightAware
04:42PM 42.5140 147.6380 224° Southwest 434 499 38,000  Level FlightAware
04:42PM 42.4570 147.5620 225° Southwest 434 499 38,000  Level FlightAware
04:43PM 42.4050 147.4930 224° Southwest 434 499 38,000  Level FlightAware
04:43PM 42.3610 147.4360 224° Southwest 434 499 38,000  Level FlightAware
04:44PM 42.3030 147.3600 224° Southwest 435 501 38,000  Level FlightAware
04:45PM 42.2520 147.2930 224° Southwest 436 502 38,000  Level FlightAware
04:45PM 42.2000 147.2260 224° Southwest 442 509 38,000  Level FlightAware
04:46PM 42.1560 147.1690 224° Southwest 437 503 38,000  Level FlightAware
04:46PM 42.0970 147.0930 224° Southwest 443 510 38,000  Level FlightAware
04:47PM 42.0450 147.0250 224° Southwest 443 510 38,000  Level FlightAware
04:47PM 42.0010 146.9680 224° Southwest 444 511 38,000  Level FlightAware
04:48PM 41.9410 146.8910 224° Southwest 444 511 38,000  Level FlightAware
04:49PM 41.8880 146.8230 224° Southwest 445 512 38,000  Level FlightAware
04:49PM 41.8440 146.7670 223° Southwest 446 513 38,000  Level FlightAware
04:50PM 41.7920 146.6990 224° Southwest 446 513 38,000  Level FlightAware
04:50PM 41.7320 146.6240 223° Southwest 447 514 38,000  Level FlightAware
04:51PM 41.6870 146.5650 224° Southwest 447 514 38,000  Level FlightAware
04:51PM 41.6350 146.4990 223° Southwest 447 514 38,000  Level FlightAware
04:52PM 41.5830 146.4330 224° Southwest 448 516 38,000  Level FlightAware
04:53PM 41.5220 146.3570 223° Southwest 449 517 38,000  Level FlightAware
04:53PM 41.4770 146.3000 224° Southwest 448 516 38,000  Level FlightAware
04:54PM 41.4240 146.2330 223° Southwest 448 516 38,000  Level FlightAware
04:54PM 41.3660 146.1600 223° Southwest 448 516 38,000  Level FlightAware
04:55PM 41.3190 146.1010 223° Southwest 447 514 38,000  Level FlightAware
04:56PM 41.2600 146.0280 223° Southwest 442 509 38,000  Level FlightAware
04:56PM 41.1990 145.9510 224° Southwest 448 516 38,000  Level FlightAware
04:57PM 41.1450 145.8840 223° Southwest 442 509 38,000  Level FlightAware
04:57PM 41.1000 145.8270 224° Southwest 443 510 38,000  Level FlightAware
04:58PM 41.0400 145.7530 223° Southwest 444 511 38,000  Level FlightAware
04:59PM 40.9860 145.6860 223° Southwest 444 511 38,000  Level FlightAware
04:59PM 40.9250 145.6110 223° Southwest 444 511 38,000  Level FlightAware
05:00PM 40.8720 145.5460 223° Southwest 444 511 38,000  Level FlightAware
05:00PM 40.8190 145.4810 223° Southwest 444 511 38,000  Level FlightAware
05:01PM 40.7560 145.4040 223° Southwest 444 511 38,000  Level FlightAware
05:02PM 40.7010 145.3370 223° Southwest 443 510 38,000  Level FlightAware
05:03PM 40.6300 145.2500 223° Southwest 443 510 38,000  Level FlightAware
05:03PM 40.5740 145.1820 223° Southwest 442 509 38,000  Level FlightAware
05:04PM 40.5320 145.1310 223° Southwest 444 511 38,000  Level FlightAware
05:04PM 40.4850 145.0730 223° Southwest 444 511 38,000  Level FlightAware
05:05PM 40.4370 145.0150 223° Southwest 444 511 38,000  Level FlightAware
05:06PM 40.3910 144.9590 223° Southwest 444 511 38,000  Level FlightAware
05:06PM 40.3100 144.8640 222° Southwest 441 507 38,000  Level FlightAware
05:07PM 40.2580 144.8010 223° Southwest 441 507 38,000  Level FlightAware
05:07PM 40.2110 144.7430 223° Southwest 441 507 38,000  Level FlightAware
05:08PM 40.1650 144.6880 222° Southwest 441 507 38,000  Level FlightAware
05:09PM 40.1180 144.6300 223° Southwest 441 507 38,000  Level FlightAware
05:09PM 40.0730 144.5750 223° Southwest 441 507 38,000  Level FlightAware
05:10PM 39.9580 144.4450 221° Southwest 422 486 38,000  Level FlightAware
05:10PM 39.9150 144.3940 222° Southwest 444 511 38,000  Level FlightAware
05:11PM 39.8670 144.3380 222° Southwest 444 511 38,000  Level FlightAware
05:12PM 39.7750 144.2290 222° Southwest 445 512 38,000  Level FlightAware
05:13PM 39.7000 144.1420 222° Southwest 444 511 38,000  Level FlightAware
05:13PM 39.6390 144.0700 222° Southwest 445 512 38,000  Level FlightAware
05:14PM 39.5820 144.0080 220° Southwest 449 517 38,000  Level FlightAware
05:15PM 39.4990 143.9400 212° Southwest 451 519 38,000  Level FlightAware
05:15PM 39.4250 143.9110 197° South 459 528 38,000  Level FlightAware
05:16PM 39.3350 143.8630 202° Southwest 457 526 38,000  Level FlightAware
05:17PM 39.2740 143.8300 203° Southwest 457 526 38,000  Level FlightAware
05:17PM 39.2130 143.7970 203° Southwest 458 527 38,000  Level FlightAware
05:18PM 39.1320 143.7530 203° Southwest 457 526 38,000  Level FlightAware
05:18PM 39.0710 143.7200 203° Southwest 458 527 38,000  Level FlightAware
05:19PM 38.9940 143.6790 202° Southwest 459 528 38,000  Level FlightAware
05:20PM 38.9140 143.6360 203° Southwest 459 528 38,000  Level FlightAware
05:20PM 38.8530 143.6040 202° Southwest 459 528 38,000  Level FlightAware
05:21PM 38.7760 143.5630 203° Southwest 459 528 38,000  Level FlightAware
05:21PM 38.7070 143.5260 203° Southwest 461 531 38,000  Level FlightAware
05:22PM 38.6370 143.4900 202° Southwest 462 532 38,000  Level FlightAware
05:23PM 38.5680 143.4530 203° Southwest 464 534 38,000  Level FlightAware
05:23PM 38.5000 143.4170 203° Southwest 464 534 38,000  Level FlightAware
05:24PM 38.4300 143.3800 202° Southwest 466 536 38,000  Level FlightAware
05:24PM 38.3620 143.3440 203° Southwest 466 536 38,000  Level FlightAware
05:25PM 38.2970 143.3100 202° Southwest 466 536 38,000  Level FlightAware
05:26PM 38.2240 143.2730 202° Southwest 467 537 38,000  Level FlightAware
05:26PM 38.1550 143.2370 202° Southwest 468 539 38,000  Level FlightAware
05:27PM 38.0840 143.1990 203° Southwest 469 540 38,000  Level FlightAware
05:27PM 38.0140 143.1630 202° Southwest 470 541 38,000  Level FlightAware
05:28PM 37.9450 143.1280 202° Southwest 471 542 38,000  Level FlightAware
05:28PM 37.8730 143.0900 203° Southwest 471 542 38,000  Level FlightAware
05:29PM 37.7920 143.0480 202° Southwest 472 543 38,000  Level FlightAware
05:30PM 37.7300 143.0170 202° Southwest 472 543 38,000  Level FlightAware
05:30PM 37.6620 142.9810 203° Southwest 473 544 38,000  Level FlightAware
05:31PM 37.5820 142.9400 202° Southwest 473 544 38,000  Level FlightAware
05:31PM 37.5240 142.9100 202° Southwest 473 544 38,000  Level FlightAware
05:32PM 37.4570 142.8760 202° Southwest 473 544 38,000  Level FlightAware
05:33PM 37.3460 142.8200 202° Southwest 473 544 38,000  Level FlightAware
05:33PM 37.2840 142.7880 202° Southwest 473 544 38,000  Level FlightAware
05:34PM 37.2130 142.7520 202° Southwest 473 544 38,000  Level FlightAware
05:35PM 37.1120 142.7010 202° Southwest 474 545 38,000  Level FlightAware
05:35PM 37.0380 142.6630 202° Southwest 475 547 38,000  Level FlightAware
05:36PM 36.9740 142.6310 202° Southwest 475 547 38,000  Level FlightAware
05:37PM 36.9080 142.5980 202° Southwest 475 547 38,000  Level FlightAware
05:37PM 36.8190 142.5540 202° Southwest 797 917 38,000 -660 Level FlightAware
05:39PM 36.5410 142.4150 195° South 37,200 -720 Descending FlightAware
05:40PM 36.6703 142.2397 195° South  Level Estimated
05:40PM 36.4400 142.3640 202° Southwest 480 552 35,900  Level FlightAware
05:41PM 36.3650 142.3270 202° Southwest 472 543 35,000 -1,800 Descending FlightAware
05:41PM 36.2920 142.2910 202° Southwest 475 547 33,800 -1,980 Descending FlightAware
05:42PM 36.2290 142.2600 202° Southwest 473 544 32,800 -2,280 Descending FlightAware
05:42PM 36.1630 142.2270 202° Southwest 470 541 31,400 -2,340 Descending FlightAware
05:43PM 36.0940 142.1930 202° Southwest 485 558 30,200 -2,040 Descending FlightAware
05:44PM 36.0390 142.1470 214° Southwest 469 540 29,200 -2,160 Descending FlightAware
05:44PM 36.0040 142.0670 242° Southwest 469 540 27,900 -2,400 Descending FlightAware
05:44PM 35.9990 142.0380 258° West 455 524 27,400 -2,400 Descending FlightAware
05:45PM 35.9890 141.9620 261° West 445 512 26,300 -3,000 Descending FlightAware
05:46PM 35.9740 141.8380 262° West 454 522 23,500 -3,000 Descending FlightAware
05:46PM 35.9640 141.7550 262° West 441 507 22,300 -2,220 Descending FlightAware
05:47PM 35.9530 141.6690 261° West 427 491 21,000 -2,400 Descending FlightAware
05:47PM 35.9430 141.5880 261° West 420 483 19,600 -2,460 Descending FlightAware
05:48PM 35.9330 141.5060 261° West 411 473 18,200 -2,340 Descending FlightAware
05:48PM 35.9230 141.4260 261° West 404 465 16,900 -2,340 Descending FlightAware
05:49PM 35.9120 141.3450 261° West 396 456 15,500 -2,400 Descending FlightAware
05:50PM 35.9050 141.2780 263° West 390 449 14,300 -2,340 Descending FlightAware
05:50PM 35.9110 141.1870 275° West 378 435 12,700 -2,220 Descending FlightAware
05:51PM 35.9150 141.1310 275° West 372 428 11,800 -1,800 Descending FlightAware
05:51PM 35.9210 141.0440 275° West 349 402 10,700 -1,080 Descending FlightAware
05:52PM 35.9260 140.9780 275° West 313 360 10,400 -540 Descending FlightAware
05:52PM 35.9300 140.9240 275° West 279 321 10,100 -900 Descending FlightAware
05:53PM 35.9330 140.8980 278° West 279 321 9,700 -1,500 Descending FlightAware
05:53PM 35.9350 140.8660 274° West 281 323 9,200 -1,500 Descending FlightAware
05:53PM 35.9380 140.8310 276° West 281 323 8,700 -1,320 Descending FlightAware
05:54PM 35.9400 140.8090 276° West 279 321 8,400 -1,260 Descending FlightAware
05:54PM 35.9420 140.7780 275° West 278 320 8,000 -1,020 Descending FlightAware
05:54PM 35.9450 140.7400 276° West 280 322 7,700 -840 Descending FlightAware
05:55PM 35.9470 140.7080 274° West 278 320 7,400 -780 Descending FlightAware
05:55PM 35.9480 140.6770 272° West 275 316 7,200 -600 Descending FlightAware
05:55PM 35.9500 140.6580 277° West 274 315 7,100 -360 Descending FlightAware
05:56PM 35.9520 140.6200 274° West 277 319 7,000 -420 Descending FlightAware
05:56PM 35.9540 140.5880 274° West 272 313 6,800 -600 Descending FlightAware
05:56PM 35.9560 140.5570 275° West 270 311 6,600 -600 Descending FlightAware
05:57PM 35.9580 140.5270 275° West 269 310 6,400 -600 Descending FlightAware
05:57PM 35.9590 140.5120 275° West 269 310 6,300 -540 Descending FlightAware
05:57PM 35.9620 140.4720 275° West 270 311 6,100 -660 Descending FlightAware
05:58PM 35.9630 140.4410 272° West 264 304 5,800 -900 Descending FlightAware
05:58PM 35.9650 140.4080 274° West 258 297 5,500 -960 Descending FlightAware
05:58PM 35.9630 140.3770 265° West 250 288 5,100 -1,020 Descending FlightAware
05:59PM 35.9620 140.3490 267° West 232 267 4,800 -840 Descending FlightAware
05:59PM 35.9600 140.3290 263° West 220 253 4,600 -840 Descending FlightAware
05:59PM 35.9580 140.3140 261° West 209 241 4,400 -900 Descending FlightAware
05:59PM 35.9540 140.3070 235° Southwest 204 235 4,300 -900 Descending FlightAware
06:00PM 35.9430 140.2890 233° Southwest 189 217 4,000 -900 Descending FlightAware
06:00PM 35.9370 140.2840 214° Southwest 187 215 3,900 -1,020 Descending FlightAware
06:00PM 35.9340 140.2820 208° Southwest 187 215 3,800 -1,320 Descending FlightAware
06:00PM 35.9260 140.2810 186° South 187 215 3,600 -1,440 Descending FlightAware
06:00PM 35.9080 140.2800 183° South 189 217 3,100 -1,140 Descending FlightAware
06:01PM 35.8890 140.2850 168° South 190 219 2,700 -900 Descending FlightAware
06:01PM 35.8840 140.2890 147° Southeast 189 217 2,600 -840 Descending FlightAware
06:01PM 35.8660 140.3020 150° Southeast 191 220 2,300 -900 Descending FlightAware
06:02PM 35.8520 140.3120 150° Southeast 187 215 2,000 -1,200 Descending FlightAware
06:02PM 35.8310 140.3270 150° Southeast 173 199 1,500 -1,140 Descending FlightAware
06:02PM 35.8190 140.3360 149° Southeast 148 170 1,200 -780 Descending FlightAware
06:03PM 35.8080 140.3440 149° Southeast 134 154 1,000 -720 Descending FlightAware
06:03PM 35.7950 140.3540 148° Southeast 134 154 700 -720 Descending FlightAware
06:03PM 35.7850 140.3610 150° Southeast 134 154 500 -360 Descending FlightAware
06:04PM 35.7660 140.3740 151° Southeast 134 154 400 -180 Descending FlightAware
06:07PM 35.7647 140.3864 253° West  Level Estimated
06:08PM 35.7647 140.3864 253° West  Level Estimated
06:09PM 35.7647 140.3864 253° West  Level Estimated
06:10PM 35.7647 140.3864 253° West  Level Estimated
06:11PM 35.7647 140.3864 253° West  Level Estimated
06:12PM 35.7647 140.3864 253° West  Level Estimated
06:13PM 35.7647 140.3864 253° West  Level Estimated
06:14PM 35.7647 140.3864 253° West  Level Estimated
06:15PM 35.7647 140.3864 253° West  Level Estimated
06:16PM 35.7647 140.3864 253° West  Level Estimated
06:17PM 35.7647 140.3864 253° West  Level Estimated
06:18PM 35.7647 140.3864 253° West  Level Estimated